createdAt,value
2023-01-04T00:01:38.212Z,56.86
2023-01-04T00:04:04.532Z,56.79
2023-01-04T00:06:30.867Z,56.67
2023-01-04T00:08:57.174Z,56.60
2023-01-04T00:11:23.606Z,55.86
2023-01-04T00:13:50.626Z,55.70
2023-01-04T00:16:22.672Z,56.09
2023-01-04T00:18:49.354Z,55.96
2023-01-04T00:21:16.470Z,55.89
2023-01-04T00:23:43.477Z,55.38
2023-01-04T00:26:10.226Z,55.92
2023-01-04T00:28:36.512Z,56.35
2023-01-04T00:31:04.237Z,55.70
2023-01-04T00:33:30.553Z,55.99
2023-01-04T00:35:56.823Z,55.74
2023-01-04T00:38:23.171Z,56.06
2023-01-04T00:40:49.465Z,55.46
2023-01-04T00:43:15.736Z,55.54
2023-01-04T00:45:42.710Z,55.19
2023-01-04T00:48:08.989Z,54.99
2023-01-04T00:50:35.352Z,54.85
2023-01-04T00:53:01.647Z,53.80
2023-01-04T00:55:27.938Z,54.18
2023-01-04T00:57:54.224Z,55.06
2023-01-04T01:00:20.506Z,55.19
2023-01-04T01:02:46.983Z,54.99
2023-01-04T01:05:13.394Z,54.56
2023-01-04T01:07:39.692Z,54.26
2023-01-04T01:10:06.255Z,53.76
2023-01-04T01:12:32.579Z,53.41
2023-01-04T01:15:00.711Z,53.05
2023-01-04T01:17:27.210Z,52.70
2023-01-04T01:19:53.496Z,52.63
2023-01-04T01:22:19.773Z,52.78
2023-01-04T01:24:46.050Z,52.90
2023-01-04T01:27:12.394Z,52.67
2023-01-04T01:29:38.667Z,52.70
2023-01-04T01:32:05.048Z,52.36
2023-01-04T01:34:31.364Z,52.79
2023-01-04T01:36:57.710Z,52.73
2023-01-04T01:39:23.986Z,52.68
2023-01-04T01:41:50.260Z,52.55
2023-01-04T01:44:35.348Z,53.06
2023-01-04T01:47:01.715Z,54.46
2023-01-04T01:49:32.440Z,54.79
2023-01-04T01:51:59.338Z,54.75
2023-01-04T01:54:29.045Z,55.09
2023-01-04T01:56:55.930Z,55.21
2023-01-04T01:59:22.258Z,54.87
2023-01-04T02:01:48.637Z,54.27
2023-01-04T02:04:15.241Z,54.56
2023-01-04T02:06:42.720Z,55.92
2023-01-04T02:09:09.144Z,56.20
2023-01-04T02:11:35.541Z,55.93
2023-01-04T02:14:20.513Z,55.45
2023-01-04T02:16:56.216Z,55.41
2023-01-04T02:19:37.791Z,55.61
2023-01-04T02:22:20.247Z,55.62
2023-01-04T02:24:52.667Z,55.03
2023-01-04T02:27:36.322Z,54.65
2023-01-04T02:30:13.492Z,54.61
2023-01-04T02:32:45.749Z,54.17
2023-01-04T02:35:11.996Z,53.71
2023-01-04T02:37:57.064Z,54.05
2023-01-04T02:40:32.503Z,53.92
2023-01-04T02:43:20.110Z,54.19
2023-01-04T02:45:53.534Z,54.85
2023-01-04T02:48:38.399Z,54.76
2023-01-04T02:51:04.730Z,54.88
2023-01-04T02:53:37.601Z,55.36
2023-01-04T02:56:03.882Z,55.28
2023-01-04T02:58:49.022Z,55.10
2023-01-04T03:01:49.994Z,54.83
2023-01-04T03:04:38.471Z,54.96
2023-01-04T03:07:13.692Z,55.04
2023-01-04T03:09:40.312Z,54.35
2023-01-04T03:12:26.257Z,54.25
2023-01-04T03:15:00.237Z,54.38
2023-01-04T03:17:26.707Z,54.50
2023-01-04T03:19:54.812Z,55.00
2023-01-04T03:22:41.209Z,55.36
2023-01-04T03:25:26.311Z,55.70
2023-01-04T03:28:11.354Z,56.24
2023-01-04T03:31:04.514Z,56.23
2023-01-04T03:33:49.360Z,55.74
2023-01-04T03:36:27.721Z,55.48
2023-01-04T03:39:20.406Z,54.90
2023-01-04T03:42:06.472Z,54.41
2023-01-04T03:45:07.680Z,54.19
2023-01-04T03:48:13.640Z,54.71
2023-01-04T03:50:44.790Z,55.17
2023-01-04T03:53:11.074Z,54.99
2023-01-04T03:55:37.433Z,55.02
2023-01-04T03:58:03.704Z,54.95
2023-01-04T04:00:30.016Z,54.44
2023-01-04T04:03:06.965Z,54.31
2023-01-04T04:05:56.488Z,54.50
2023-01-04T04:08:31.563Z,54.61
2023-01-04T04:11:20.228Z,54.55
2023-01-04T04:13:49.779Z,55.20
2023-01-04T04:16:16.124Z,54.92
2023-01-04T04:18:42.604Z,54.22
2023-01-04T04:21:08.890Z,53.51
2023-01-04T04:23:35.170Z,53.69
2023-01-04T04:26:01.516Z,54.03
2023-01-04T04:28:27.814Z,53.92
2023-01-04T04:30:54.154Z,54.11
2023-01-04T04:33:20.422Z,54.31
2023-01-04T04:35:50.041Z,53.90
2023-01-04T04:38:16.337Z,53.71
2023-01-04T04:41:01.356Z,53.09
2023-01-04T04:43:27.751Z,52.84
2023-01-04T04:45:54.091Z,52.41
2023-01-04T04:48:20.440Z,52.27
2023-01-04T04:50:46.813Z,52.68
2023-01-04T04:53:13.080Z,53.07
2023-01-04T04:55:39.374Z,52.87
2023-01-04T04:58:05.647Z,53.15
2023-01-04T05:00:31.921Z,53.68
2023-01-04T05:02:58.812Z,53.93
2023-01-04T05:05:25.196Z,53.88
2023-01-04T05:07:51.492Z,54.15
2023-01-04T05:10:17.783Z,53.83
2023-01-04T05:13:02.505Z,54.10
2023-01-04T05:15:29.088Z,53.72
2023-01-04T05:17:55.454Z,53.80
2023-01-04T05:20:21.732Z,53.54
2023-01-04T05:22:48.039Z,53.44
2023-01-04T05:25:14.323Z,54.00
2023-01-04T05:27:40.675Z,54.01
2023-01-04T05:30:25.779Z,54.71
2023-01-04T05:32:52.142Z,53.71
2023-01-04T05:35:18.439Z,53.76
2023-01-04T05:37:44.743Z,53.22
2023-01-04T05:40:11.144Z,53.56
2023-01-04T05:42:37.464Z,53.79
2023-01-04T05:45:03.913Z,53.63
2023-01-04T05:47:30.259Z,53.85
2023-01-04T05:49:56.534Z,53.92
2023-01-04T05:52:22.824Z,54.23
2023-01-04T05:54:49.108Z,53.86
2023-01-04T05:57:15.440Z,53.68
2023-01-04T05:59:42.352Z,53.73
2023-01-04T06:02:13.192Z,53.01
2023-01-04T06:04:39.583Z,53.27
2023-01-04T06:07:05.843Z,53.22
2023-01-04T06:09:32.197Z,53.54
2023-01-04T06:11:58.509Z,53.99
2023-01-04T06:14:24.791Z,53.73
2023-01-04T06:16:51.159Z,53.42
2023-01-04T06:19:17.476Z,53.40
2023-01-04T06:21:43.776Z,54.07
2023-01-04T06:24:10.608Z,53.75
2023-01-04T06:26:36.900Z,53.88
2023-01-04T06:29:03.218Z,53.18
2023-01-04T06:31:29.530Z,53.00
2023-01-04T06:33:55.932Z,52.77
2023-01-04T06:36:22.302Z,53.04
2023-01-04T06:38:48.755Z,52.93
2023-01-04T06:41:15.150Z,52.98
2023-01-04T06:43:41.465Z,52.91
2023-01-04T06:46:07.773Z,52.99
2023-01-04T06:48:34.090Z,52.82
2023-01-04T06:51:00.370Z,52.93
2023-01-04T06:53:26.674Z,52.78
2023-01-04T06:55:53.046Z,52.62
2023-01-04T06:58:19.409Z,52.50
2023-01-04T07:00:47.086Z,52.84
2023-01-04T07:03:16.000Z,53.63
2023-01-04T07:05:43.045Z,53.92
2023-01-04T07:08:09.379Z,53.77
2023-01-04T07:10:35.738Z,53.57
2023-01-04T07:13:02.100Z,53.75
2023-01-04T07:15:38.326Z,53.96
2023-01-04T07:18:06.698Z,54.14
2023-01-04T07:20:32.963Z,54.19
2023-01-04T07:22:59.253Z,54.23
2023-01-04T07:25:25.573Z,53.83
2023-01-04T07:27:52.971Z,53.58
2023-01-04T07:30:19.704Z,55.06
2023-01-04T07:32:45.985Z,54.56
2023-01-04T07:35:12.257Z,54.15
2023-01-04T07:37:38.553Z,54.17
2023-01-04T07:40:05.210Z,54.12
2023-01-04T07:42:31.519Z,53.79
2023-01-04T07:44:57.907Z,53.05
2023-01-04T07:47:24.184Z,52.85
2023-01-04T07:49:50.467Z,53.02
2023-01-04T07:52:16.761Z,53.38
2023-01-04T07:54:43.058Z,53.28
2023-01-04T07:57:09.331Z,53.17
2023-01-04T07:59:35.646Z,53.34
2023-01-04T08:02:02.034Z,53.39
2023-01-04T08:04:34.410Z,53.61
2023-01-04T08:07:01.414Z,53.62
2023-01-04T08:09:27.706Z,53.77
2023-01-04T08:11:53.997Z,54.14
2023-01-04T08:14:20.327Z,53.60
2023-01-04T08:16:46.592Z,53.34
2023-01-04T08:19:14.009Z,52.73
2023-01-04T08:21:40.308Z,52.25
2023-01-04T08:24:06.818Z,52.32
2023-01-04T08:26:33.093Z,52.41
2023-01-04T08:28:59.505Z,52.66
2023-01-04T08:31:29.687Z,53.12
2023-01-04T08:33:56.101Z,53.09
2023-01-04T08:36:27.605Z,53.38
2023-01-04T08:39:00.561Z,54.05
2023-01-04T08:44:13.815Z,54.31
2023-01-04T08:46:40.138Z,54.54
2023-01-04T08:49:06.731Z,53.40
2023-01-04T08:51:33.021Z,49.79
2023-01-04T08:53:59.305Z,48.85
2023-01-04T08:56:25.603Z,49.79
2023-01-04T08:58:51.892Z,49.28
2023-01-04T09:01:18.318Z,50.42
2023-01-04T09:03:44.712Z,50.47
2023-01-04T09:06:11.866Z,50.09
2023-01-04T09:08:38.489Z,50.67
2023-01-04T09:11:08.763Z,51.56
2023-01-04T09:13:35.164Z,51.40
2023-01-04T09:16:05.567Z,49.45
2023-01-04T09:18:32.883Z,50.51
2023-01-04T09:21:01.297Z,50.82
2023-01-04T09:23:28.885Z,51.16
2023-01-04T09:25:55.178Z,50.48
2023-01-04T09:28:21.482Z,49.92
2023-01-04T09:30:47.789Z,48.83
2023-01-04T09:33:14.094Z,49.43
2023-01-04T09:35:40.507Z,46.00
2023-01-04T09:38:06.849Z,46.55
2023-01-04T09:40:53.396Z,47.28
2023-01-04T09:43:22.276Z,46.85
2023-01-04T09:45:49.414Z,46.33
2023-01-04T09:48:21.592Z,45.54
2023-01-04T09:50:58.913Z,46.49
2023-01-04T09:53:32.542Z,47.24
2023-01-04T09:56:02.651Z,46.53
2023-01-04T09:58:36.002Z,47.14
2023-01-04T10:01:02.731Z,45.59
2023-01-04T10:03:30.456Z,46.90
2023-01-04T10:05:56.880Z,47.12
2023-01-04T10:08:23.246Z,47.72
2023-01-04T10:11:04.800Z,46.96
2023-01-04T10:13:37.105Z,46.03
2023-01-04T10:16:15.164Z,46.89
2023-01-04T10:21:37.871Z,46.94
2023-01-04T10:24:13.731Z,45.44
2023-01-04T10:26:42.189Z,45.51
2023-01-04T10:29:15.415Z,44.59
2023-01-04T10:31:43.829Z,45.86
2023-01-04T10:34:20.883Z,46.17
2023-01-04T10:36:47.334Z,46.76
2023-01-04T10:39:15.192Z,46.30
2023-01-04T10:41:45.461Z,45.61
2023-01-04T10:44:14.738Z,46.82
2023-01-04T10:46:52.847Z,45.78
2023-01-04T10:49:21.868Z,46.14
2023-01-04T10:51:58.431Z,47.38
2023-01-04T10:54:30.722Z,47.48
2023-01-04T10:57:15.975Z,47.56
2023-01-04T10:59:51.583Z,47.90
2023-01-04T11:02:36.728Z,47.22
2023-01-04T11:05:05.203Z,48.29
2023-01-04T11:07:37.439Z,47.92
2023-01-04T11:10:08.196Z,47.66
2023-01-04T11:12:34.488Z,48.15
2023-01-04T11:15:00.782Z,47.20
2023-01-04T11:17:27.152Z,47.74
2023-01-04T11:19:53.439Z,48.05
2023-01-04T11:22:27.965Z,47.49
2023-01-04T11:25:33.236Z,46.71
2023-01-04T11:27:44.067Z,46.96
2023-01-04T11:30:13.607Z,47.07
2023-01-04T11:32:42.211Z,46.99
2023-01-04T11:35:08.495Z,46.63
2023-01-04T11:37:35.862Z,47.34
2023-01-04T11:40:11.230Z,47.12
2023-01-04T11:42:37.509Z,47.31
2023-01-04T11:45:03.949Z,46.38
2023-01-04T11:47:33.245Z,46.37
2023-01-04T11:49:59.838Z,47.80
2023-01-04T11:52:35.737Z,47.91
2023-01-04T11:55:20.344Z,47.65
2023-01-04T11:57:46.844Z,47.39
2023-01-04T12:00:14.276Z,47.59
2023-01-04T12:03:00.892Z,47.67
2023-01-04T12:05:30.320Z,47.23
2023-01-04T12:07:57.509Z,48.59
2023-01-04T12:10:26.553Z,49.77
2023-01-04T12:12:56.257Z,48.96
2023-01-04T12:15:27.888Z,49.25
2023-01-04T12:18:02.952Z,48.39
2023-01-04T12:20:29.279Z,48.98
2023-01-04T12:22:55.556Z,47.62
2023-01-04T12:25:27.605Z,47.80
2023-01-04T12:27:55.702Z,48.08
2023-01-04T12:30:38.861Z,48.27
2023-01-04T12:33:24.110Z,48.31
2023-01-04T12:36:03.103Z,48.43
2023-01-04T12:38:48.015Z,48.80
2023-01-04T12:41:14.308Z,48.88
2023-01-04T12:43:46.804Z,48.88
2023-01-04T12:46:47.452Z,47.60
2023-01-04T12:49:25.664Z,48.19
2023-01-04T12:54:57.823Z,48.73
2023-01-04T12:57:25.017Z,49.16
2023-01-04T13:00:07.394Z,49.41
2023-01-04T13:02:39.600Z,48.54
2023-01-04T13:08:08.835Z,50.28
2023-01-04T13:10:44.278Z,49.81
2023-01-04T13:13:21.630Z,49.89
2023-01-04T13:15:47.873Z,49.06
2023-01-04T13:18:21.294Z,49.46
2023-01-04T13:20:47.566Z,49.87
2023-01-04T13:23:13.952Z,49.87
2023-01-04T13:25:40.219Z,50.21
2023-01-04T13:28:06.520Z,49.96
2023-01-04T13:30:36.782Z,49.50
2023-01-04T13:33:27.986Z,49.25
2023-01-04T13:36:13.034Z,49.71
2023-01-04T13:38:39.515Z,49.10
2023-01-04T13:41:10.864Z,48.03
2023-01-04T13:43:37.151Z,48.66
2023-01-04T13:46:09.748Z,48.80
2023-01-04T13:48:36.580Z,49.54
2023-01-04T13:51:12.009Z,49.68
2023-01-04T13:53:38.302Z,49.69
2023-01-04T13:56:05.356Z,49.44
2023-01-04T13:58:32.340Z,49.57
2023-01-04T14:01:02.987Z,48.60
2023-01-04T14:03:32.470Z,49.49
2023-01-04T14:06:11.395Z,49.45
2023-01-04T14:08:57.696Z,48.99
2023-01-04T14:11:50.651Z,49.00
2023-01-04T14:14:16.868Z,48.71
2023-01-04T14:16:43.161Z,48.14
2023-01-04T14:19:32.377Z,48.48
2023-01-04T14:21:58.713Z,48.04
2023-01-04T14:25:07.982Z,48.97
2023-01-04T14:27:29.980Z,48.88
2023-01-04T14:29:56.252Z,48.70
2023-01-04T14:32:22.546Z,48.75
2023-01-04T14:34:48.834Z,47.89
2023-01-04T14:37:15.131Z,47.13
2023-01-04T14:39:41.706Z,48.22
2023-01-04T14:42:24.567Z,48.10
2023-01-04T14:44:50.827Z,48.97
2023-01-04T14:47:17.209Z,48.04
2023-01-04T14:49:43.547Z,49.02
2023-01-04T14:52:18.819Z,49.11
2023-01-04T14:54:45.172Z,48.63
2023-01-04T14:57:11.663Z,48.87
2023-01-04T14:59:38.023Z,49.31
2023-01-04T15:02:04.416Z,48.18
2023-01-04T15:04:30.832Z,48.98
2023-01-04T15:06:58.467Z,49.18
2023-01-04T15:09:24.818Z,49.56
2023-01-04T15:11:51.128Z,49.84
2023-01-04T15:14:17.460Z,50.11
2023-01-04T15:16:43.905Z,49.25
2023-01-04T15:19:10.461Z,49.65
2023-01-04T15:21:40.861Z,50.10
2023-01-04T15:24:08.062Z,49.97
2023-01-04T15:26:34.357Z,49.05
2023-01-04T15:29:00.670Z,49.27
2023-01-04T15:31:32.378Z,50.09
2023-01-04T15:34:01.345Z,50.55
2023-01-04T15:36:27.751Z,49.63
2023-01-04T15:38:54.739Z,50.08
2023-01-04T15:41:40.178Z,49.70
2023-01-04T15:44:16.478Z,49.75
2023-01-04T15:46:42.799Z,51.04
2023-01-04T15:49:14.975Z,49.83
2023-01-04T15:51:43.475Z,49.83
2023-01-04T15:54:10.277Z,50.00
2023-01-04T15:56:36.561Z,51.15
2023-01-04T15:59:02.870Z,50.62
2023-01-04T16:01:29.272Z,49.13
2023-01-04T16:03:55.606Z,49.80
2023-01-04T16:06:21.936Z,49.39
2023-01-04T16:08:49.691Z,48.51
2023-01-04T16:11:16.998Z,48.16
2023-01-04T16:13:43.659Z,49.49
2023-01-04T16:16:10.008Z,49.69
2023-01-04T16:18:36.473Z,48.90
2023-01-04T16:21:06.799Z,49.14
2023-01-04T16:23:33.073Z,49.94
2023-01-04T16:26:03.250Z,50.16
2023-01-04T16:28:29.559Z,50.12
2023-01-04T16:30:56.016Z,50.12
2023-01-04T16:33:22.290Z,50.57
2023-01-04T16:35:53.994Z,50.55
2023-01-04T16:38:23.613Z,49.62
2023-01-04T16:40:56.175Z,49.95
2023-01-04T16:43:22.469Z,49.88
2023-01-04T16:45:48.749Z,49.35
2023-01-04T16:48:18.474Z,49.85
2023-01-04T16:50:45.626Z,50.33
2023-01-04T16:53:11.931Z,50.14
2023-01-04T16:55:38.245Z,49.51
2023-01-04T16:58:04.529Z,50.37
2023-01-04T17:00:31.786Z,50.65
2023-01-04T17:02:58.209Z,49.61
2023-01-04T17:05:24.524Z,49.52
2023-01-04T17:07:50.841Z,50.07
2023-01-04T17:10:17.128Z,50.14
2023-01-04T17:12:48.452Z,49.29
2023-01-04T17:18:02.120Z,49.93
2023-01-04T17:20:28.410Z,51.38
2023-01-04T17:22:54.701Z,51.38
2023-01-04T17:25:21.005Z,51.15
2023-01-04T17:27:47.283Z,51.42
2023-01-04T17:30:13.582Z,51.64
2023-01-04T17:32:39.870Z,51.01
2023-01-04T17:35:06.182Z,51.20
2023-01-04T17:37:32.481Z,51.48
2023-01-04T17:39:58.776Z,51.71
2023-01-04T17:42:25.078Z,51.69
2023-01-04T17:44:51.460Z,51.17
2023-01-04T17:47:17.811Z,51.64
2023-01-04T17:49:44.096Z,51.42
2023-01-04T17:52:13.679Z,51.32
2023-01-04T17:54:42.804Z,50.61
2023-01-04T17:57:09.105Z,50.52
2023-01-04T17:59:35.382Z,50.41
2023-01-04T18:02:01.734Z,50.70
2023-01-04T18:04:28.178Z,50.31
2023-01-04T18:06:54.473Z,49.55
2023-01-04T18:09:22.488Z,49.45
2023-01-04T18:11:50.991Z,49.90
2023-01-04T18:14:17.341Z,50.01
2023-01-04T18:16:56.927Z,49.18
2023-01-04T18:19:24.427Z,48.66
2023-01-04T18:21:50.742Z,47.97
2023-01-04T18:24:35.532Z,47.95
2023-01-04T18:27:20.977Z,48.42
2023-01-04T18:29:48.686Z,48.73
2023-01-04T18:32:15.020Z,49.07
2023-01-04T18:34:41.315Z,49.62
2023-01-04T18:37:07.599Z,49.41
2023-01-04T18:39:33.937Z,48.99
2023-01-04T18:42:00.302Z,49.22
2023-01-04T18:44:35.258Z,48.68
2023-01-04T18:47:02.532Z,48.62
2023-01-04T18:49:29.183Z,48.71
2023-01-04T18:51:55.511Z,49.00
2023-01-04T18:54:22.043Z,48.75
2023-01-04T18:56:48.461Z,48.85
2023-01-04T18:59:16.974Z,47.98
2023-01-04T19:01:43.943Z,47.89
2023-01-04T19:04:12.305Z,48.05
2023-01-04T19:06:38.770Z,47.33
2023-01-04T19:09:07.051Z,47.39
2023-01-04T19:11:33.640Z,47.74
2023-01-04T19:13:59.913Z,47.77
2023-01-04T19:16:29.487Z,48.24
2023-01-04T19:18:57.449Z,49.14
2023-01-04T19:21:23.748Z,48.92
2023-01-04T19:23:51.115Z,48.59
2023-01-04T19:26:17.426Z,48.04
2023-01-04T19:28:43.706Z,48.11
2023-01-04T19:31:10.272Z,47.50
2023-01-04T19:33:36.761Z,48.67
2023-01-04T19:36:04.967Z,49.27
2023-01-04T19:38:31.274Z,49.13
2023-01-04T19:40:57.641Z,49.12
2023-01-04T19:43:23.987Z,49.08
2023-01-04T19:45:50.394Z,49.00
2023-01-04T19:48:16.703Z,48.44
2023-01-04T19:50:42.989Z,48.50
2023-01-04T19:53:09.301Z,49.02
2023-01-04T19:55:38.380Z,48.77
2023-01-04T19:58:04.684Z,48.79
2023-01-04T20:00:30.966Z,48.88
2023-01-04T20:02:57.449Z,48.57
2023-01-04T20:05:23.897Z,47.94
2023-01-04T20:07:50.763Z,48.20
2023-01-04T20:10:17.162Z,47.83
2023-01-04T20:12:43.634Z,47.33
2023-01-04T20:15:10.393Z,48.15
2023-01-04T20:17:36.683Z,47.72
2023-01-04T20:20:02.993Z,47.68
2023-01-04T20:22:29.306Z,46.68
2023-01-04T20:24:55.609Z,46.16
2023-01-04T20:27:21.921Z,45.20
2023-01-04T20:29:48.227Z,45.57
2023-01-04T20:32:14.505Z,45.56
2023-01-04T20:34:40.799Z,45.73
2023-01-04T20:37:07.092Z,45.54
2023-01-04T20:39:33.366Z,46.79
2023-01-04T20:42:18.348Z,47.21
2023-01-04T20:44:44.618Z,45.95
2023-01-04T20:47:10.921Z,46.51
2023-01-04T20:49:37.215Z,46.36
2023-01-04T20:52:03.532Z,46.73
2023-01-04T20:54:29.815Z,47.98
2023-01-04T20:56:56.119Z,48.73
2023-01-04T20:59:22.482Z,49.35
2023-01-04T21:01:48.909Z,50.01
2023-01-04T21:04:17.516Z,49.61
2023-01-04T21:06:43.842Z,49.12
2023-01-04T21:09:10.113Z,48.85
2023-01-04T21:11:36.385Z,49.66
2023-01-04T21:14:02.693Z,48.81
2023-01-04T21:16:28.984Z,49.19
2023-01-04T21:18:55.285Z,49.00
2023-01-04T21:21:21.551Z,48.88
2023-01-04T21:23:51.713Z,49.29
2023-01-04T21:26:20.971Z,49.70
2023-01-04T21:28:47.282Z,49.68
2023-01-04T21:31:15.538Z,50.66
2023-01-04T21:33:43.270Z,50.36
2023-01-04T21:36:10.533Z,49.50
2023-01-04T21:38:36.830Z,48.51
2023-01-04T21:41:12.564Z,48.02
2023-01-04T21:43:39.126Z,48.55
2023-01-04T21:46:06.282Z,49.33
2023-01-04T21:48:32.784Z,48.67
2023-01-04T21:50:59.512Z,48.54
2023-01-04T21:53:26.823Z,48.52
2023-01-04T21:56:03.239Z,47.83
2023-01-04T21:58:29.509Z,48.04
2023-01-04T22:00:55.929Z,48.51
2023-01-04T22:03:22.214Z,48.01
2023-01-04T22:05:48.520Z,48.04
2023-01-04T22:08:14.784Z,47.99
2023-01-04T22:10:41.074Z,47.53
2023-01-04T22:13:07.367Z,47.28
2023-01-04T22:15:33.706Z,47.90
2023-01-04T22:17:59.992Z,48.74
2023-01-04T22:20:26.265Z,47.96
2023-01-04T22:22:52.554Z,48.98
2023-01-04T22:25:18.899Z,48.80
2023-01-04T22:27:48.567Z,49.63
2023-01-04T22:30:14.839Z,49.63
2023-01-04T22:32:41.135Z,49.10
2023-01-04T22:35:07.668Z,48.54
2023-01-04T22:37:33.960Z,48.65
2023-01-04T22:40:00.225Z,48.37
2023-01-04T22:42:26.509Z,48.20
2023-01-04T22:44:52.798Z,47.87
2023-01-04T22:47:19.077Z,47.45
2023-01-04T22:49:45.415Z,47.08
2023-01-04T22:52:11.703Z,47.49
2023-01-04T22:54:38.031Z,47.83
2023-01-04T22:57:04.367Z,47.81
2023-01-04T22:59:30.663Z,47.24
2023-01-04T23:01:56.992Z,47.83
2023-01-04T23:04:23.391Z,47.04
2023-01-04T23:06:49.699Z,46.60
2023-01-04T23:09:16.796Z,46.83
2023-01-04T23:11:43.152Z,47.16
2023-01-04T23:14:11.214Z,47.89
2023-01-04T23:16:37.591Z,48.73
2023-01-04T23:19:04.951Z,48.49
2023-01-04T23:21:31.256Z,48.62
2023-01-04T23:23:57.640Z,47.89
2023-01-04T23:26:24.068Z,47.60
2023-01-04T23:28:50.401Z,47.81
2023-01-04T23:31:17.761Z,47.14
2023-01-04T23:33:44.175Z,46.42
2023-01-04T23:36:14.323Z,45.83
2023-01-04T23:38:40.972Z,45.40
2023-01-04T23:41:07.406Z,45.02
2023-01-04T23:43:37.278Z,45.15
2023-01-04T23:46:07.236Z,45.20
2023-01-04T23:48:33.527Z,45.56
2023-01-04T23:50:59.921Z,45.65
2023-01-04T23:53:26.221Z,46.12
2023-01-04T23:55:58.274Z,44.96
2023-01-04T23:58:25.069Z,44.86
